createdAt,value
2019-02-14T00:00:02.318Z,902.93
2019-02-14T00:01:02.310Z,902.98
2019-02-14T00:02:02.283Z,903.01
2019-02-14T00:03:02.269Z,903.04
2019-02-14T00:04:02.257Z,903.03
2019-02-14T00:05:02.236Z,903.04
2019-02-14T00:06:02.217Z,903.04
2019-02-14T00:07:02.203Z,903.06
2019-02-14T00:08:02.180Z,903.05
2019-02-14T00:09:02.165Z,903.06
2019-02-14T00:10:02.150Z,903.06
2019-02-14T00:11:02.134Z,903.04
2019-02-14T00:12:02.116Z,903.06
2019-02-14T00:13:02.100Z,903.03
2019-02-14T00:14:02.078Z,903.01
2019-02-14T00:15:02.063Z,903.00
2019-02-14T00:16:02.045Z,903.02
2019-02-14T00:17:02.027Z,903.00
2019-02-14T00:18:02.009Z,903.01
2019-02-14T00:19:01.989Z,902.97
2019-02-14T00:20:01.981Z,902.99
2019-02-14T00:21:01.961Z,903.00
2019-02-14T00:22:01.939Z,903.01
2019-02-14T00:23:01.923Z,903.01
2019-02-14T00:24:01.905Z,903.02
2019-02-14T00:25:01.889Z,902.97
2019-02-14T00:26:01.872Z,902.95
2019-02-14T00:27:01.854Z,902.97
2019-02-14T00:28:01.830Z,902.97
2019-02-14T00:29:01.816Z,902.94
2019-02-14T00:30:01.807Z,902.94
2019-02-14T00:31:01.784Z,902.95
2019-02-14T00:32:01.775Z,902.92
2019-02-14T00:33:01.750Z,902.96
2019-02-14T00:34:01.731Z,902.89
2019-02-14T00:35:01.718Z,902.93
2019-02-14T00:36:01.696Z,902.92
2019-02-14T00:37:01.688Z,902.92
2019-02-14T00:38:01.664Z,902.93
2019-02-14T00:39:01.642Z,902.92
2019-02-14T00:40:01.628Z,902.92
2019-02-14T00:41:01.613Z,902.96
2019-02-14T00:42:01.596Z,902.92
2019-02-14T00:43:01.577Z,902.97
2019-02-14T00:44:01.560Z,902.96
2019-02-14T00:45:01.543Z,902.97
2019-02-14T00:46:01.530Z,902.97
2019-02-14T00:47:01.519Z,902.94
2019-02-14T00:48:01.493Z,902.97
2019-02-14T00:49:01.475Z,902.98
2019-02-14T00:50:01.454Z,902.97
2019-02-14T00:51:01.441Z,902.96
2019-02-14T00:52:01.423Z,902.93
2019-02-14T00:53:01.402Z,902.92
2019-02-14T00:54:01.386Z,902.93
2019-02-14T00:55:01.369Z,902.96
2019-02-14T00:56:01.349Z,902.90
2019-02-14T00:57:01.336Z,902.89
2019-02-14T00:58:01.319Z,902.94
2019-02-14T00:59:01.299Z,902.88
2019-02-14T01:00:01.278Z,902.93
2019-02-14T01:01:01.263Z,902.91
2019-02-14T01:02:01.242Z,902.92
2019-02-14T01:03:01.232Z,902.86
2019-02-14T01:04:01.211Z,902.87
2019-02-14T01:05:01.190Z,902.88
2019-02-14T01:06:01.174Z,902.88
2019-02-14T01:07:01.160Z,902.84
2019-02-14T01:08:01.145Z,902.82
2019-02-14T01:09:01.122Z,902.78
2019-02-14T01:10:01.114Z,902.79
2019-02-14T01:11:01.093Z,902.80
2019-02-14T01:12:01.078Z,902.76
2019-02-14T01:13:01.061Z,902.76
2019-02-14T01:14:01.046Z,902.73
2019-02-14T01:15:01.017Z,902.77
2019-02-14T01:16:01.002Z,902.73
2019-02-14T01:17:00.976Z,902.75
2019-02-14T01:18:00.966Z,902.76
2019-02-14T01:19:00.968Z,902.72
2019-02-14T01:20:00.934Z,902.70
2019-02-14T01:21:00.916Z,902.70
2019-02-14T01:22:00.899Z,902.68
2019-02-14T01:23:00.885Z,902.68
2019-02-14T01:24:00.865Z,902.70
2019-02-14T01:25:00.853Z,902.69
2019-02-14T01:26:00.828Z,902.67
2019-02-14T01:27:00.812Z,902.65
2019-02-14T01:28:00.795Z,902.69
2019-02-14T01:29:00.780Z,902.66
2019-02-14T01:30:00.760Z,902.67
2019-02-14T01:31:00.743Z,902.65
2019-02-14T01:32:00.728Z,902.65
2019-02-14T01:33:00.706Z,902.66
2019-02-14T01:34:00.694Z,902.62
2019-02-14T01:35:00.671Z,902.62
2019-02-14T01:36:00.652Z,902.61
2019-02-14T01:37:00.635Z,902.60
2019-02-14T01:38:00.623Z,902.60
2019-02-14T01:39:00.605Z,902.64
2019-02-14T01:40:00.587Z,902.59
2019-02-14T01:41:00.569Z,902.55
2019-02-14T01:42:00.546Z,902.56
2019-02-14T01:43:00.534Z,902.55
2019-02-14T01:44:00.516Z,902.55
2019-02-14T01:45:00.500Z,902.53
2019-02-14T01:46:00.482Z,902.53
2019-02-14T01:47:00.464Z,902.58
2019-02-14T01:48:00.453Z,902.59
2019-02-14T01:49:00.429Z,902.57
2019-02-14T01:50:00.462Z,902.58
2019-02-14T01:51:00.395Z,902.55
2019-02-14T01:52:00.376Z,902.57
2019-02-14T01:53:00.355Z,902.51
2019-02-14T01:54:00.344Z,902.56
2019-02-14T01:55:00.322Z,902.51
2019-02-14T01:56:00.305Z,902.50
2019-02-14T01:57:00.293Z,902.56
2019-02-14T01:58:00.271Z,902.54
2019-02-14T01:59:00.254Z,902.52
2019-02-14T02:00:00.341Z,902.55
2019-02-14T02:01:00.217Z,902.53
2019-02-14T02:02:00.209Z,902.53
2019-02-14T02:03:00.186Z,902.50
2019-02-14T02:04:00.166Z,902.51
2019-02-14T02:05:00.278Z,902.47
2019-02-14T02:06:00.131Z,902.48
2019-02-14T02:07:00.120Z,902.47
2019-02-14T02:08:00.096Z,902.41
2019-02-14T02:09:00.078Z,902.46
2019-02-14T02:10:00.070Z,902.46
2019-02-14T02:11:00.047Z,902.40
2019-02-14T02:12:00.027Z,902.39
2019-02-14T02:13:00.014Z,902.41
2019-02-14T02:13:59.991Z,902.39
2019-02-14T02:14:59.980Z,902.44
2019-02-14T02:15:59.959Z,902.42
2019-02-14T02:16:59.938Z,902.40
2019-02-14T02:17:59.929Z,902.41
2019-02-14T02:18:59.906Z,902.39
2019-02-14T02:19:59.890Z,902.36
2019-02-14T02:20:59.871Z,902.37
2019-02-14T02:21:59.854Z,902.42
2019-02-14T02:22:59.836Z,902.45
2019-02-14T02:23:59.820Z,902.42
2019-02-14T02:24:59.803Z,902.43
2019-02-14T02:25:59.780Z,902.40
2019-02-14T02:26:59.770Z,902.44
2019-02-14T02:27:59.747Z,902.46
2019-02-14T02:28:59.732Z,902.43
2019-02-14T02:29:59.715Z,902.46
2019-02-14T02:30:59.698Z,902.49
2019-02-14T02:31:59.685Z,902.50
2019-02-14T02:32:59.664Z,902.49
2019-02-14T02:33:59.651Z,902.49
2019-02-14T02:34:59.626Z,902.52
2019-02-14T02:36:00.687Z,902.54
2019-02-14T02:36:59.598Z,902.52
2019-02-14T02:37:59.594Z,902.55
2019-02-14T02:38:59.556Z,902.58
2019-02-14T02:39:59.541Z,902.52
2019-02-14T02:40:59.521Z,902.54
2019-02-14T02:41:59.508Z,902.51
2019-02-14T02:42:59.490Z,902.51
2019-02-14T02:43:59.470Z,902.48
2019-02-14T02:44:59.459Z,902.52
2019-02-14T02:45:59.433Z,902.53
2019-02-14T02:46:59.425Z,902.54
2019-02-14T02:47:59.405Z,902.51
2019-02-14T02:48:59.389Z,902.51
2019-02-14T02:49:59.364Z,902.53
2019-02-14T02:50:59.352Z,902.53
2019-02-14T02:51:59.329Z,902.48
2019-02-14T02:52:59.312Z,902.50
2019-02-14T02:53:59.292Z,902.54
2019-02-14T02:54:59.275Z,902.53
2019-02-14T02:55:59.264Z,902.52
2019-02-14T02:56:59.243Z,902.55
2019-02-14T02:57:59.226Z,902.58
2019-02-14T02:58:59.208Z,902.56
2019-02-14T02:59:59.188Z,902.57
2019-02-14T03:00:59.170Z,902.54
2019-02-14T03:01:59.152Z,902.53
2019-02-14T03:02:59.140Z,902.51
2019-02-14T03:03:59.120Z,902.48
2019-02-14T03:04:59.107Z,902.48
2019-02-14T03:05:59.084Z,902.48
2019-02-14T03:06:59.061Z,902.48
2019-02-14T03:07:59.051Z,902.49
2019-02-14T03:08:59.034Z,902.49
2019-02-14T03:09:59.018Z,902.49
2019-02-14T03:10:58.996Z,902.48
2019-02-14T03:11:58.980Z,902.46
2019-02-14T03:12:58.962Z,902.43
2019-02-14T03:13:58.949Z,902.43
2019-02-14T03:14:58.927Z,902.43
2019-02-14T03:15:58.907Z,902.41
2019-02-14T03:16:58.894Z,902.39
2019-02-14T03:17:58.876Z,902.42
2019-02-14T03:18:58.858Z,902.44
2019-02-14T03:19:58.847Z,902.45
2019-02-14T03:20:58.825Z,902.44
2019-02-14T03:21:58.804Z,902.45
2019-02-14T03:22:58.784Z,902.45
2019-02-14T03:23:58.770Z,902.45
2019-02-14T03:24:58.754Z,902.49
2019-02-14T03:25:58.732Z,902.46
2019-02-14T03:26:58.719Z,902.46
2019-02-14T03:27:58.728Z,902.48
2019-02-14T03:28:58.681Z,902.41
2019-02-14T03:29:58.663Z,902.43
2019-02-14T03:30:58.641Z,902.44
2019-02-14T03:31:58.634Z,902.46
2019-02-14T03:32:58.610Z,902.43
2019-02-14T03:33:58.601Z,902.45
2019-02-14T03:34:58.591Z,902.47
2019-02-14T03:35:58.558Z,902.49
2019-02-14T03:36:58.540Z,902.48
2019-02-14T03:37:58.527Z,902.47
2019-02-14T03:38:58.507Z,902.53
2019-02-14T03:39:58.489Z,902.53
2019-02-14T03:40:58.473Z,902.49
2019-02-14T03:41:58.454Z,902.51
2019-02-14T03:42:58.440Z,902.55
2019-02-14T03:43:58.421Z,902.50
2019-02-14T03:44:58.403Z,902.52
2019-02-14T03:45:58.383Z,902.54
2019-02-14T03:46:58.363Z,902.53
2019-02-14T03:47:58.345Z,902.57
2019-02-14T03:48:58.331Z,902.56
2019-02-14T03:49:58.309Z,902.52
2019-02-14T03:50:58.313Z,902.57
2019-02-14T03:51:58.269Z,902.54
2019-02-14T03:52:58.258Z,902.53
2019-02-14T03:53:58.241Z,902.53
2019-02-14T03:54:58.226Z,902.54
2019-02-14T03:55:58.210Z,902.55
2019-02-14T03:56:58.186Z,902.55
2019-02-14T03:57:58.168Z,902.53
2019-02-14T03:58:58.148Z,902.58
2019-02-14T03:59:58.138Z,902.53
2019-02-14T04:00:58.116Z,902.56
2019-02-14T04:01:58.099Z,902.60
2019-02-14T04:02:58.079Z,902.57
2019-02-14T04:03:58.065Z,902.60
2019-02-14T04:04:58.045Z,902.61
2019-02-14T04:05:58.027Z,902.59
2019-02-14T04:06:58.020Z,902.60
2019-02-14T04:07:57.997Z,902.63
2019-02-14T04:08:57.969Z,902.59
2019-02-14T04:09:57.960Z,902.62
2019-02-14T04:10:57.939Z,902.60
2019-02-14T04:11:57.924Z,902.60
2019-02-14T04:12:57.902Z,902.59
2019-02-14T04:13:57.883Z,902.62
2019-02-14T04:14:57.870Z,902.63
2019-02-14T04:15:57.852Z,902.64
2019-02-14T04:16:57.830Z,902.60
2019-02-14T04:17:57.813Z,902.57
2019-02-14T04:18:57.799Z,902.58
2019-02-14T04:19:57.781Z,902.56
2019-02-14T04:20:57.761Z,902.54
2019-02-14T04:21:57.748Z,902.54
2019-02-14T04:22:57.729Z,902.56
2019-02-14T04:23:57.715Z,902.56
2019-02-14T04:24:57.691Z,902.56
2019-02-14T04:25:57.672Z,902.55
2019-02-14T04:26:57.657Z,902.56
2019-02-14T04:27:57.644Z,902.57
2019-02-14T04:28:57.624Z,902.58
2019-02-14T04:29:57.604Z,902.58
2019-02-14T04:30:57.588Z,902.61
2019-02-14T04:31:57.567Z,902.57
2019-02-14T04:32:57.550Z,902.55
2019-02-14T04:33:57.530Z,902.53
2019-02-14T04:34:57.515Z,902.50
2019-02-14T04:35:57.502Z,902.49
2019-02-14T04:36:57.484Z,902.50
2019-02-14T04:37:57.470Z,902.48
2019-02-14T04:38:57.445Z,902.51
2019-02-14T04:39:57.425Z,902.48
2019-02-14T04:40:57.411Z,902.50
2019-02-14T04:41:57.388Z,902.48
2019-02-14T04:42:57.379Z,902.48
2019-02-14T04:43:57.353Z,902.46
2019-02-14T04:44:57.338Z,902.53
2019-02-14T04:45:57.326Z,902.49
2019-02-14T04:46:57.302Z,902.51
2019-02-14T04:47:57.284Z,902.50
2019-02-14T04:48:57.261Z,902.52
2019-02-14T04:49:57.249Z,902.52
2019-02-14T04:50:57.232Z,902.59
2019-02-14T04:51:57.216Z,902.59
2019-02-14T04:52:57.202Z,902.57
2019-02-14T04:53:57.174Z,902.59
2019-02-14T04:54:57.162Z,902.60
2019-02-14T04:55:57.148Z,902.60
2019-02-14T04:56:57.119Z,902.61
2019-02-14T04:57:57.101Z,902.63
2019-02-14T04:58:57.095Z,902.66
2019-02-14T04:59:57.066Z,902.60
2019-02-14T05:00:57.058Z,902.62
2019-02-14T05:01:57.040Z,902.59
2019-02-14T05:02:57.017Z,902.61
2019-02-14T05:03:57.006Z,902.60
2019-02-14T05:04:56.981Z,902.60
2019-02-14T05:05:56.964Z,902.62
2019-02-14T05:06:56.948Z,902.58
2019-02-14T05:07:56.928Z,902.61
2019-02-14T05:08:56.911Z,902.65
2019-02-14T05:09:56.908Z,902.64
2019-02-14T05:10:56.880Z,902.58
2019-02-14T05:11:56.861Z,902.66
2019-02-14T05:12:56.836Z,902.65
2019-02-14T05:13:56.827Z,902.63
2019-02-14T05:14:56.805Z,902.68
2019-02-14T05:15:56.787Z,902.70
2019-02-14T05:16:56.766Z,902.65
2019-02-14T05:17:56.753Z,902.68
2019-02-14T05:18:56.736Z,902.68
2019-02-14T05:19:56.713Z,902.69
2019-02-14T05:20:56.704Z,902.71
2019-02-14T05:21:56.681Z,902.71
2019-02-14T05:22:56.661Z,902.73
2019-02-14T05:23:56.647Z,902.69
2019-02-14T05:24:56.663Z,902.70
2019-02-14T05:25:56.615Z,902.67
2019-02-14T05:26:56.591Z,902.69
2019-02-14T05:27:56.581Z,902.69
2019-02-14T05:28:56.554Z,902.65
2019-02-14T05:29:56.546Z,902.67
2019-02-14T05:30:56.518Z,902.68
2019-02-14T05:31:56.508Z,902.68
2019-02-14T05:32:56.486Z,902.70
2019-02-14T05:33:56.469Z,902.68
2019-02-14T05:34:56.448Z,902.70
2019-02-14T05:35:56.434Z,902.69
2019-02-14T05:36:56.419Z,902.74
2019-02-14T05:37:56.399Z,902.73
2019-02-14T05:38:56.381Z,902.70
2019-02-14T05:39:56.362Z,902.71
2019-02-14T05:40:56.345Z,902.74
2019-02-14T05:41:56.325Z,902.74
2019-02-14T05:42:56.307Z,902.74
2019-02-14T05:43:56.289Z,902.76
2019-02-14T05:44:56.272Z,902.76
2019-02-14T05:45:56.260Z,902.79
2019-02-14T05:46:56.245Z,902.77
2019-02-14T05:47:56.222Z,902.82
2019-02-14T05:48:56.202Z,902.79
2019-02-14T05:49:56.183Z,902.79
2019-02-14T05:50:56.168Z,902.81
2019-02-14T05:51:56.146Z,902.84
2019-02-14T05:52:56.132Z,902.78
2019-02-14T05:53:56.117Z,902.80
2019-02-14T05:54:56.094Z,902.78
2019-02-14T05:55:56.074Z,902.76
2019-02-14T05:56:56.071Z,902.76
2019-02-14T05:57:56.044Z,902.78
2019-02-14T05:58:56.026Z,902.82
2019-02-14T05:59:56.008Z,902.77
2019-02-14T06:00:55.994Z,902.79
2019-02-14T06:01:55.971Z,902.82
2019-02-14T06:02:55.973Z,902.83
2019-02-14T06:03:55.928Z,902.87
2019-02-14T06:04:55.916Z,902.86
2019-02-14T06:05:55.898Z,902.86
2019-02-14T06:07:00.927Z,902.91
2019-02-14T06:07:55.861Z,902.90
2019-02-14T06:08:55.845Z,902.90
2019-02-14T06:09:55.826Z,902.87
2019-02-14T06:10:55.813Z,902.86
2019-02-14T06:11:55.797Z,902.88
2019-02-14T06:12:55.778Z,902.88
2019-02-14T06:13:55.758Z,902.87
2019-02-14T06:14:55.740Z,902.89
2019-02-14T06:15:55.722Z,902.90
2019-02-14T06:16:55.700Z,902.89
2019-02-14T06:17:55.685Z,902.89
2019-02-14T06:18:55.667Z,902.89
2019-02-14T06:19:55.655Z,902.88
2019-02-14T06:20:55.632Z,902.91
2019-02-14T06:21:55.611Z,902.84
2019-02-14T06:22:55.597Z,902.83
2019-02-14T06:23:55.577Z,902.87
2019-02-14T06:24:55.561Z,902.87
2019-02-14T06:25:55.543Z,902.91
2019-02-14T06:26:55.532Z,902.91
2019-02-14T06:27:55.502Z,902.89
2019-02-14T06:28:55.490Z,902.90
2019-02-14T06:29:55.480Z,902.89
2019-02-14T06:30:55.521Z,902.90
2019-02-14T06:31:55.444Z,902.89
2019-02-14T06:32:55.452Z,902.90
2019-02-14T06:33:55.406Z,902.96
2019-02-14T06:34:55.385Z,902.92
2019-02-14T06:35:55.373Z,902.97
2019-02-14T06:36:55.345Z,902.97
2019-02-14T06:37:55.345Z,902.96
2019-02-14T06:38:55.327Z,902.95
2019-02-14T06:39:55.306Z,902.96
2019-02-14T06:40:55.271Z,902.97
2019-02-14T06:41:55.260Z,903.01
2019-02-14T06:42:55.238Z,903.03
2019-02-14T06:43:55.224Z,903.06
2019-02-14T06:44:55.199Z,903.04
2019-02-14T06:45:55.186Z,903.09
2019-02-14T06:46:55.168Z,903.06
2019-02-14T06:47:55.158Z,903.12
2019-02-14T06:48:55.136Z,903.10
2019-02-14T06:49:55.113Z,903.12
2019-02-14T06:50:55.100Z,903.15
2019-02-14T06:51:55.075Z,903.13
2019-02-14T06:52:55.061Z,903.14
2019-02-14T06:53:55.046Z,903.14
2019-02-14T06:54:55.029Z,903.15
2019-02-14T06:55:55.005Z,903.15
2019-02-14T06:56:54.990Z,903.20
2019-02-14T06:57:54.969Z,903.16
2019-02-14T06:58:54.953Z,903.16
2019-02-14T06:59:54.931Z,903.18
2019-02-14T07:00:54.915Z,903.18
2019-02-14T07:01:54.899Z,903.19
2019-02-14T07:02:54.884Z,903.17
2019-02-14T07:03:54.864Z,903.23
2019-02-14T07:04:54.843Z,903.22
2019-02-14T07:05:54.830Z,903.19
2019-02-14T07:06:54.808Z,903.20
2019-02-14T07:07:54.785Z,903.23
2019-02-14T07:08:54.776Z,903.24
2019-02-14T07:09:54.750Z,903.26
2019-02-14T07:10:54.745Z,903.23
2019-02-14T07:11:54.723Z,903.27
2019-02-14T07:12:54.704Z,903.24
2019-02-14T07:13:54.679Z,903.25
2019-02-14T07:14:54.670Z,903.26
2019-02-14T07:15:54.646Z,903.27
2019-02-14T07:16:54.628Z,903.22
2019-02-14T07:17:54.606Z,903.24
2019-02-14T07:18:54.593Z,903.27
2019-02-14T07:19:54.575Z,903.28
2019-02-14T07:20:54.600Z,903.30
2019-02-14T07:21:54.542Z,903.34
2019-02-14T07:22:54.521Z,903.31
2019-02-14T07:23:54.518Z,903.32
2019-02-14T07:24:54.491Z,903.28
2019-02-14T07:25:54.468Z,903.30
2019-02-14T07:26:54.453Z,903.29
2019-02-14T07:27:54.429Z,903.28
2019-02-14T07:28:54.415Z,903.27
2019-02-14T07:29:56.996Z,903.24
2019-02-14T07:30:54.380Z,903.22
2019-02-14T07:31:54.358Z,903.22
2019-02-14T07:32:54.345Z,903.28
2019-02-14T07:33:54.326Z,903.21
2019-02-14T07:34:54.303Z,903.25
2019-02-14T07:35:54.293Z,903.23
2019-02-14T07:36:54.270Z,903.23
2019-02-14T07:37:54.259Z,903.22
2019-02-14T07:38:54.235Z,903.23
2019-02-14T07:39:54.217Z,903.23
2019-02-14T07:40:54.199Z,903.23
2019-02-14T07:41:54.181Z,903.23
2019-02-14T07:42:54.163Z,903.21
2019-02-14T07:43:54.145Z,903.25
2019-02-14T07:44:54.127Z,903.22
2019-02-14T07:45:54.111Z,903.24
2019-02-14T07:46:54.090Z,903.23
2019-02-14T07:47:54.074Z,903.19
2019-02-14T07:48:54.056Z,903.24
2019-02-14T07:49:54.036Z,903.20
2019-02-14T07:50:54.018Z,903.23
2019-02-14T07:51:54.011Z,903.22
2019-02-14T07:52:53.984Z,903.22
2019-02-14T07:53:53.967Z,903.23
2019-02-14T07:54:53.966Z,903.20
2019-02-14T07:55:53.931Z,903.20
2019-02-14T07:56:53.913Z,903.22
2019-02-14T07:57:53.892Z,903.20
2019-02-14T07:58:53.877Z,903.23
2019-02-14T07:59:53.866Z,903.23
2019-02-14T08:00:53.840Z,903.26
2019-02-14T08:01:53.837Z,903.23
2019-02-14T08:02:53.805Z,903.27
2019-02-14T08:03:53.791Z,903.22
2019-02-14T08:04:53.769Z,903.21
2019-02-14T08:05:53.753Z,903.19
2019-02-14T08:06:53.741Z,903.17
2019-02-14T08:07:53.714Z,903.19
2019-02-14T08:08:53.704Z,903.17
2019-02-14T08:09:53.686Z,903.16
2019-02-14T08:10:53.666Z,903.13
2019-02-14T08:11:53.655Z,903.16
2019-02-14T08:12:53.632Z,903.10
2019-02-14T08:13:53.616Z,903.11
2019-02-14T08:14:53.602Z,903.15
2019-02-14T08:15:53.580Z,903.12
2019-02-14T08:16:53.570Z,903.11
2019-02-14T08:17:53.547Z,903.13
2019-02-14T08:18:53.531Z,903.16
2019-02-14T08:19:53.517Z,903.14
2019-02-14T08:20:53.495Z,903.20
2019-02-14T08:21:53.486Z,903.18
2019-02-14T08:22:53.467Z,903.17
2019-02-14T08:23:53.455Z,903.19
2019-02-14T08:24:53.451Z,903.19
2019-02-14T08:25:53.418Z,903.17
2019-02-14T08:26:53.398Z,903.18
2019-02-14T08:27:53.384Z,903.18
2019-02-14T08:28:53.372Z,903.19
2019-02-14T08:29:53.356Z,903.23
2019-02-14T08:30:53.336Z,903.20
2019-02-14T08:31:53.320Z,903.22
2019-02-14T08:32:53.310Z,903.22
2019-02-14T08:33:53.290Z,903.21
2019-02-14T08:34:54.049Z,903.20
2019-02-14T08:35:53.297Z,903.17
2019-02-14T08:36:53.247Z,903.20
2019-02-14T08:37:54.146Z,903.19
2019-02-14T08:38:53.215Z,903.18
2019-02-14T08:39:53.278Z,903.16
2019-02-14T08:40:55.172Z,903.16
2019-02-14T08:41:53.175Z,903.16
2019-02-14T08:42:53.158Z,903.20
2019-02-14T08:43:53.194Z,903.19
2019-02-14T08:44:53.133Z,903.16
2019-02-14T08:45:53.113Z,903.15
2019-02-14T08:46:54.128Z,903.20
2019-02-14T08:47:53.093Z,903.15
2019-02-14T08:48:53.069Z,903.15
2019-02-14T08:49:53.053Z,903.15
2019-02-14T08:50:53.053Z,903.16
2019-02-14T08:51:53.021Z,903.14
2019-02-14T08:52:53.009Z,903.15
2019-02-14T08:53:52.995Z,903.18
2019-02-14T08:54:52.979Z,903.19
2019-02-14T08:55:52.971Z,903.16
2019-02-14T08:56:52.948Z,903.15
2019-02-14T08:57:52.978Z,903.12
2019-02-14T08:58:52.928Z,903.10
2019-02-14T08:59:52.916Z,903.12
2019-02-14T09:00:52.904Z,903.11
2019-02-14T09:01:52.877Z,903.12
2019-02-14T09:02:52.872Z,903.12
2019-02-14T09:03:52.857Z,903.12
2019-02-14T09:04:52.839Z,903.10
2019-02-14T09:05:52.826Z,903.15
2019-02-14T09:06:52.810Z,903.10
2019-02-14T09:07:54.912Z,903.10
2019-02-14T09:08:52.784Z,903.09
2019-02-14T09:09:52.773Z,903.14
2019-02-14T09:10:52.763Z,903.10
2019-02-14T09:11:52.741Z,903.09
2019-02-14T09:12:52.729Z,903.15
2019-02-14T09:13:52.708Z,903.13
2019-02-14T09:14:52.706Z,903.15
2019-02-14T09:15:52.696Z,903.16
2019-02-14T09:16:52.664Z,903.17
2019-02-14T09:17:52.652Z,903.19
2019-02-14T09:18:52.642Z,903.16
2019-02-14T09:19:52.626Z,903.15
2019-02-14T09:20:52.612Z,903.17
2019-02-14T09:21:52.602Z,903.16
2019-02-14T09:22:52.583Z,903.17
2019-02-14T09:23:52.575Z,903.21
2019-02-14T09:24:52.551Z,903.21
2019-02-14T09:25:52.535Z,903.20
2019-02-14T09:26:52.527Z,903.20
2019-02-14T09:27:52.523Z,903.14
2019-02-14T09:28:52.503Z,903.16
2019-02-14T09:29:52.484Z,903.16
2019-02-14T09:30:52.470Z,903.13
2019-02-14T09:31:52.462Z,903.15
2019-02-14T09:32:52.446Z,903.13
2019-02-14T09:33:52.425Z,903.14
2019-02-14T09:34:52.419Z,903.10
2019-02-14T09:35:52.401Z,903.14
2019-02-14T09:36:52.399Z,903.10
2019-02-14T09:37:52.376Z,903.09
2019-02-14T09:38:52.364Z,903.08
2019-02-14T09:39:52.352Z,903.08
2019-02-14T09:40:52.330Z,903.09
2019-02-14T09:41:52.320Z,903.08
2019-02-14T09:42:52.309Z,903.08
2019-02-14T09:43:52.298Z,903.09
2019-02-14T09:44:52.279Z,903.12
2019-02-14T09:45:52.261Z,903.11
2019-02-14T09:46:52.263Z,903.09
2019-02-14T09:47:53.969Z,903.09
2019-02-14T09:48:52.225Z,903.15
2019-02-14T09:49:52.227Z,903.12
2019-02-14T09:50:52.209Z,903.14
2019-02-14T09:51:52.188Z,903.12
2019-02-14T09:52:52.181Z,903.13
2019-02-14T09:53:52.162Z,903.15
2019-02-14T09:54:52.152Z,903.14
2019-02-14T09:55:52.136Z,903.13
2019-02-14T09:56:52.128Z,903.19
2019-02-14T09:57:52.112Z,903.11
2019-02-14T09:58:52.095Z,903.13
2019-02-14T09:59:52.086Z,903.12
2019-02-14T10:00:52.072Z,903.15
2019-02-14T10:01:52.065Z,903.18
2019-02-14T10:02:52.051Z,903.16
2019-02-14T10:03:52.031Z,903.16
2019-02-14T10:04:52.026Z,903.15
2019-02-14T10:05:52.020Z,903.14
2019-02-14T10:06:51.994Z,903.19
2019-02-14T10:07:51.997Z,903.19
2019-02-14T10:08:51.989Z,903.19
2019-02-14T10:09:51.967Z,903.17
2019-02-14T10:10:51.951Z,903.17
2019-02-14T10:11:51.945Z,903.19
2019-02-14T10:12:51.923Z,903.19
2019-02-14T10:13:51.911Z,903.18
2019-02-14T10:14:51.910Z,903.16
2019-02-14T10:15:51.887Z,903.22
2019-02-14T10:16:51.872Z,903.20
2019-02-14T10:17:51.868Z,903.18
2019-02-14T10:18:51.851Z,903.21
2019-02-14T10:19:51.842Z,903.20
2019-02-14T10:20:51.832Z,903.21
2019-02-14T10:21:51.821Z,903.23
2019-02-14T10:22:51.809Z,903.22
2019-02-14T10:23:51.802Z,903.25
2019-02-14T10:24:52.589Z,903.21
2019-02-14T10:25:51.773Z,903.22
2019-02-14T10:26:51.802Z,903.20
2019-02-14T10:27:51.753Z,903.21
2019-02-14T10:28:51.738Z,903.21
2019-02-14T10:29:51.729Z,903.20
2019-02-14T10:30:51.722Z,903.24
2019-02-14T10:31:51.707Z,903.25
2019-02-14T10:32:51.705Z,903.25
2019-02-14T10:33:51.684Z,903.22
2019-02-14T10:34:51.678Z,903.22
2019-02-14T10:35:51.666Z,903.24
2019-02-14T10:36:51.651Z,903.24
2019-02-14T10:37:51.650Z,903.23
2019-02-14T10:38:51.635Z,903.22
2019-02-14T10:39:51.624Z,903.24
2019-02-14T10:40:51.613Z,903.22
2019-02-14T10:41:51.598Z,903.20
2019-02-14T10:42:51.589Z,903.18
2019-02-14T10:43:51.585Z,903.18
2019-02-14T10:44:51.571Z,903.18
2019-02-14T10:45:51.561Z,903.18
2019-02-14T10:46:51.555Z,903.20
2019-02-14T10:47:51.535Z,903.14
2019-02-14T10:48:51.532Z,903.15
2019-02-14T10:49:51.518Z,903.14
2019-02-14T10:50:51.516Z,903.14
2019-02-14T10:51:51.496Z,903.11
2019-02-14T10:52:51.496Z,903.14
2019-02-14T10:53:51.476Z,903.12
2019-02-14T10:54:51.472Z,903.13
2019-02-14T10:55:51.458Z,903.13
2019-02-14T10:56:51.440Z,903.12
2019-02-14T10:57:51.435Z,903.15
2019-02-14T10:58:51.438Z,903.14
2019-02-14T10:59:51.413Z,903.12
2019-02-14T11:00:51.404Z,903.15
2019-02-14T11:01:51.397Z,903.17
2019-02-14T11:02:51.382Z,903.14
2019-02-14T11:03:51.374Z,903.17
2019-02-14T11:04:51.368Z,903.14
2019-02-14T11:05:51.351Z,903.16
2019-02-14T11:06:51.342Z,903.15
2019-02-14T11:07:51.334Z,903.10
2019-02-14T11:08:51.322Z,903.11
2019-02-14T11:09:51.311Z,903.10
2019-02-14T11:10:51.299Z,903.09
2019-02-14T11:11:51.293Z,903.13
2019-02-14T11:12:51.281Z,903.09
2019-02-14T11:13:51.278Z,903.08
2019-02-14T11:14:51.264Z,903.10
2019-02-14T11:15:51.257Z,903.07
2019-02-14T11:16:51.248Z,903.08
2019-02-14T11:17:51.236Z,903.07
2019-02-14T11:18:51.224Z,903.08
2019-02-14T11:19:51.216Z,903.03
2019-02-14T11:20:51.199Z,902.99
2019-02-14T11:21:51.189Z,902.98
2019-02-14T11:22:51.189Z,902.99
2019-02-14T11:23:51.177Z,902.95
2019-02-14T11:24:51.169Z,902.95
2019-02-14T11:25:51.152Z,902.94
2019-02-14T11:26:51.148Z,902.96
2019-02-14T11:27:51.138Z,902.88
2019-02-14T11:28:51.138Z,902.93
2019-02-14T11:29:51.110Z,902.88
2019-02-14T11:30:51.129Z,902.85
2019-02-14T11:31:51.105Z,902.90
2019-02-14T11:32:51.091Z,902.87
2019-02-14T11:33:51.076Z,902.91
2019-02-14T11:34:51.066Z,902.87
2019-02-14T11:35:51.062Z,902.86
2019-02-14T11:36:51.055Z,902.83
2019-02-14T11:37:51.043Z,902.84
2019-02-14T11:38:51.039Z,902.82
2019-02-14T11:39:51.023Z,902.80
2019-02-14T11:40:51.018Z,902.77
2019-02-14T11:41:51.005Z,902.75
2019-02-14T11:42:51.000Z,902.76
2019-02-14T11:43:50.992Z,902.76
2019-02-14T11:44:50.983Z,902.75
2019-02-14T11:45:50.965Z,902.77
2019-02-14T11:46:51.777Z,902.77
2019-02-14T11:47:50.953Z,902.78
2019-02-14T11:48:50.945Z,902.76
2019-02-14T11:49:50.935Z,902.75
2019-02-14T11:50:50.925Z,902.72
2019-02-14T11:51:50.918Z,902.73
2019-02-14T11:52:50.909Z,902.69
2019-02-14T11:53:50.907Z,902.71
2019-02-14T11:54:50.894Z,902.70
2019-02-14T11:55:50.884Z,902.73
2019-02-14T11:56:50.873Z,902.70
2019-02-14T11:57:50.869Z,902.67
2019-02-14T11:58:50.854Z,902.71
2019-02-14T11:59:50.843Z,902.69
2019-02-14T12:00:50.841Z,902.69
2019-02-14T12:01:55.451Z,902.68
2019-02-14T12:02:55.506Z,902.71
2019-02-14T12:03:50.817Z,902.65
2019-02-14T12:04:50.803Z,902.64
2019-02-14T12:05:50.795Z,902.66
2019-02-14T12:06:50.866Z,902.63
2019-02-14T12:07:50.782Z,902.62
2019-02-14T12:08:59.852Z,902.62
2019-02-14T12:09:50.762Z,902.61
2019-02-14T12:10:50.754Z,902.61
2019-02-14T12:11:50.743Z,902.59
2019-02-14T12:12:50.734Z,902.60
2019-02-14T12:13:50.727Z,902.61
2019-02-14T12:14:50.717Z,902.59
2019-02-14T12:15:50.707Z,902.57
2019-02-14T12:16:50.702Z,902.56
2019-02-14T12:17:50.693Z,902.54
2019-02-14T12:18:50.678Z,902.55
2019-02-14T12:19:50.674Z,902.52
2019-02-14T12:20:50.666Z,902.51
2019-02-14T12:21:50.662Z,902.54
2019-02-14T12:22:50.653Z,902.52
2019-02-14T12:23:50.643Z,902.53
2019-02-14T12:24:50.631Z,902.54
2019-02-14T12:25:50.632Z,902.51
2019-02-14T12:26:50.619Z,902.52
2019-02-14T12:27:50.606Z,902.53